createdAt,value
2018-04-18T00:00:59.767Z,0.00
2018-04-18T00:01:59.776Z,0.00
2018-04-18T00:02:59.789Z,0.00
2018-04-18T00:03:59.803Z,0.00
2018-04-18T00:04:59.810Z,0.00
2018-04-18T00:05:59.822Z,0.00
2018-04-18T00:06:59.836Z,0.00
2018-04-18T00:07:59.841Z,0.00
2018-04-18T00:08:59.848Z,0.00
2018-04-18T00:09:59.860Z,0.00
2018-04-18T00:10:59.869Z,0.00
2018-04-18T00:11:59.883Z,0.00
2018-04-18T00:12:59.895Z,0.00
2018-04-18T00:13:59.898Z,0.00
2018-04-18T00:14:59.912Z,0.00
2018-04-18T00:15:59.920Z,0.00
2018-04-18T00:16:59.928Z,0.00
2018-04-18T00:17:59.937Z,0.00
2018-04-18T00:18:59.954Z,0.00
2018-04-18T00:19:59.957Z,0.00
2018-04-18T00:20:59.965Z,0.00
2018-04-18T00:21:59.979Z,0.00
2018-04-18T00:22:59.989Z,0.00
2018-04-18T00:23:59.995Z,0.00
2018-04-18T00:25:00.013Z,0.00
2018-04-18T00:26:00.014Z,0.00
2018-04-18T00:27:00.025Z,0.00
2018-04-18T00:28:00.035Z,0.00
2018-04-18T00:29:00.049Z,0.00
2018-04-18T00:30:00.055Z,0.00
2018-04-18T00:31:00.072Z,0.00
2018-04-18T00:32:00.073Z,0.00
2018-04-18T00:33:00.084Z,0.00
2018-04-18T00:34:00.095Z,0.00
2018-04-18T00:35:00.106Z,0.00
2018-04-18T00:36:00.112Z,0.00
2018-04-18T00:37:00.129Z,0.00
2018-04-18T00:38:00.132Z,0.00
2018-04-18T00:39:00.140Z,0.00
2018-04-18T00:40:00.151Z,0.00
2018-04-18T00:41:00.163Z,0.00
2018-04-18T00:42:00.170Z,0.00
2018-04-18T00:43:00.182Z,0.00
2018-04-18T00:44:00.197Z,0.00
2018-04-18T00:45:00.200Z,0.00
2018-04-18T00:46:00.211Z,0.00
2018-04-18T00:47:00.224Z,0.00
2018-04-18T00:48:00.232Z,0.00
2018-04-18T00:49:00.245Z,0.00
2018-04-18T00:50:00.250Z,0.00
2018-04-18T00:51:00.259Z,0.00
2018-04-18T00:52:00.272Z,0.00
2018-04-18T00:53:00.276Z,0.00
2018-04-18T00:54:00.291Z,0.00
2018-04-18T00:55:00.305Z,0.00
2018-04-18T00:56:00.308Z,0.00
2018-04-18T00:57:00.315Z,0.00
2018-04-18T00:58:00.332Z,0.00
2018-04-18T00:59:00.341Z,0.00
2018-04-18T01:00:00.353Z,0.00
2018-04-18T01:01:00.365Z,0.00
2018-04-18T01:02:00.364Z,0.00
2018-04-18T01:03:00.372Z,0.00
2018-04-18T01:04:00.383Z,0.00
2018-04-18T01:05:00.390Z,0.00
2018-04-18T01:06:00.406Z,0.00
2018-04-18T01:07:00.413Z,0.00
2018-04-18T01:08:00.429Z,0.00
2018-04-18T01:09:00.431Z,0.00
2018-04-18T01:10:00.440Z,0.00
2018-04-18T01:11:00.448Z,0.00
2018-04-18T01:12:00.461Z,0.00
2018-04-18T01:13:00.469Z,0.00
2018-04-18T01:14:00.485Z,0.00
2018-04-18T01:15:00.489Z,0.00
2018-04-18T01:16:00.501Z,0.00
2018-04-18T01:17:00.511Z,0.00
2018-04-18T01:18:00.517Z,0.00
2018-04-18T01:19:00.526Z,0.00
2018-04-18T01:20:00.540Z,0.00
2018-04-18T01:21:00.548Z,0.00
2018-04-18T01:22:00.563Z,0.00
2018-04-18T01:23:00.564Z,0.00
2018-04-18T01:24:00.578Z,0.00
2018-04-18T01:25:00.585Z,0.00
2018-04-18T01:26:00.601Z,0.00
2018-04-18T01:27:00.599Z,0.00
2018-04-18T01:28:00.621Z,0.00
2018-04-18T01:29:00.618Z,0.00
2018-04-18T01:30:00.629Z,0.00
2018-04-18T01:31:00.635Z,0.00
2018-04-18T01:32:00.654Z,0.00
2018-04-18T01:33:00.657Z,0.00
2018-04-18T01:34:00.666Z,0.00
2018-04-18T01:35:00.675Z,0.00
2018-04-18T01:36:00.722Z,0.00
2018-04-18T01:37:00.696Z,0.00
2018-04-18T01:38:00.706Z,0.00
2018-04-18T01:39:00.715Z,0.00
2018-04-18T01:40:00.736Z,0.00
2018-04-18T01:41:00.764Z,0.00
2018-04-18T01:42:00.770Z,0.00
2018-04-18T01:43:00.751Z,0.00
2018-04-18T01:44:00.763Z,0.00
2018-04-18T01:45:00.767Z,0.00
2018-04-18T01:46:00.779Z,0.00
2018-04-18T01:47:00.792Z,0.00
2018-04-18T01:48:00.798Z,0.00
2018-04-18T01:49:00.806Z,0.00
2018-04-18T01:50:00.818Z,0.00
2018-04-18T01:51:00.827Z,0.00
2018-04-18T01:52:00.836Z,0.00
2018-04-18T01:53:00.842Z,0.00
2018-04-18T01:54:00.857Z,0.00
2018-04-18T01:55:00.863Z,0.00
2018-04-18T01:56:00.873Z,0.00
2018-04-18T01:57:00.881Z,0.00
2018-04-18T01:58:00.888Z,0.00
2018-04-18T01:59:00.899Z,0.00
2018-04-18T02:00:00.925Z,0.00
2018-04-18T02:01:00.920Z,0.00
2018-04-18T02:02:00.925Z,0.00
2018-04-18T02:03:00.935Z,0.00
2018-04-18T02:04:00.944Z,0.00
2018-04-18T02:05:00.955Z,0.00
2018-04-18T02:06:00.970Z,0.00
2018-04-18T02:07:00.971Z,0.00
2018-04-18T02:08:00.983Z,0.00
2018-04-18T02:09:00.991Z,0.00
2018-04-18T02:10:01.001Z,0.00
2018-04-18T02:11:01.014Z,0.00
2018-04-18T02:12:01.040Z,0.00
2018-04-18T02:13:01.026Z,0.00
2018-04-18T02:14:01.038Z,0.00
2018-04-18T02:15:01.046Z,0.00
2018-04-18T02:16:01.057Z,0.00
2018-04-18T02:17:01.066Z,0.00
2018-04-18T02:18:01.072Z,0.00
2018-04-18T02:19:01.111Z,0.00
2018-04-18T02:20:01.094Z,0.00
2018-04-18T02:21:01.106Z,0.00
2018-04-18T02:22:01.114Z,0.00
2018-04-18T02:23:01.122Z,0.00
2018-04-18T02:24:01.130Z,0.00
2018-04-18T02:25:01.136Z,0.00
2018-04-18T02:26:01.148Z,0.00
2018-04-18T02:27:01.157Z,0.00
2018-04-18T02:28:01.165Z,0.00
2018-04-18T02:29:01.171Z,0.00
2018-04-18T02:30:01.194Z,0.00
2018-04-18T02:31:01.193Z,0.00
2018-04-18T02:32:01.207Z,0.00
2018-04-18T02:33:01.209Z,0.00
2018-04-18T02:34:01.223Z,0.00
2018-04-18T02:35:01.227Z,0.00
2018-04-18T02:36:01.241Z,0.00
2018-04-18T02:37:01.244Z,0.00
2018-04-18T02:38:01.258Z,0.00
2018-04-18T02:39:01.262Z,0.00
2018-04-18T02:40:01.273Z,0.00
2018-04-18T02:41:01.283Z,0.00
2018-04-18T02:42:01.290Z,0.00
2018-04-18T02:43:01.298Z,0.00
2018-04-18T02:44:01.314Z,0.00
2018-04-18T02:45:01.318Z,0.00
2018-04-18T02:46:01.329Z,0.00
2018-04-18T02:47:01.338Z,0.00
2018-04-18T02:48:01.346Z,0.00
2018-04-18T02:49:01.351Z,0.00
2018-04-18T02:50:01.369Z,0.00
2018-04-18T02:51:01.367Z,0.00
2018-04-18T02:52:01.376Z,0.00
2018-04-18T02:53:01.397Z,0.00
2018-04-18T02:54:01.396Z,0.00
2018-04-18T02:55:01.407Z,0.00
2018-04-18T02:56:01.418Z,0.00
2018-04-18T02:57:01.421Z,0.00
2018-04-18T02:58:01.433Z,0.00
2018-04-18T02:59:01.446Z,0.00
2018-04-18T03:00:01.448Z,0.00
2018-04-18T03:01:01.463Z,0.00
2018-04-18T03:02:01.465Z,0.00
2018-04-18T03:03:01.477Z,0.00
2018-04-18T03:04:01.487Z,0.00
2018-04-18T03:05:01.493Z,0.00
2018-04-18T03:06:01.507Z,0.00
2018-04-18T03:07:01.518Z,0.00
2018-04-18T03:08:01.521Z,0.00
2018-04-18T03:09:01.528Z,0.00
2018-04-18T03:10:01.539Z,0.00
2018-04-18T03:11:01.581Z,0.00
2018-04-18T03:12:01.554Z,0.00
2018-04-18T03:13:01.568Z,0.00
2018-04-18T03:14:01.574Z,0.00
2018-04-18T03:15:01.585Z,0.00
2018-04-18T03:16:01.595Z,0.00
2018-04-18T03:17:01.621Z,0.00
2018-04-18T03:18:01.611Z,0.00
2018-04-18T03:19:01.627Z,0.00
2018-04-18T03:20:01.632Z,0.00
2018-04-18T03:21:01.644Z,0.00
2018-04-18T03:22:01.645Z,0.00
2018-04-18T03:23:01.652Z,0.00
2018-04-18T03:24:01.664Z,0.00
2018-04-18T03:25:01.689Z,0.00
2018-04-18T03:26:01.680Z,0.00
2018-04-18T03:27:01.689Z,0.00
2018-04-18T03:28:01.696Z,0.00
2018-04-18T03:29:01.736Z,0.00
2018-04-18T03:30:01.723Z,0.00
2018-04-18T03:31:01.729Z,0.00
2018-04-18T03:32:01.730Z,0.00
2018-04-18T03:33:01.745Z,0.00
2018-04-18T03:34:01.756Z,0.00
2018-04-18T03:35:01.767Z,0.00
2018-04-18T03:36:01.769Z,0.00
2018-04-18T03:37:01.793Z,0.00
2018-04-18T03:38:01.788Z,0.00
2018-04-18T03:39:01.795Z,0.00
2018-04-18T03:40:01.804Z,0.00
2018-04-18T03:41:01.811Z,0.00
2018-04-18T03:42:01.820Z,0.00
2018-04-18T03:43:01.833Z,0.00
2018-04-18T03:44:01.840Z,0.00
2018-04-18T03:45:01.852Z,0.00
2018-04-18T03:46:01.858Z,0.00
2018-04-18T03:47:01.872Z,0.00
2018-04-18T03:48:01.871Z,0.00
2018-04-18T03:49:01.882Z,0.00
2018-04-18T03:50:01.890Z,0.00
2018-04-18T03:51:01.917Z,0.00
2018-04-18T03:52:01.906Z,0.00
2018-04-18T03:53:01.922Z,0.00
2018-04-18T03:54:01.925Z,0.00
2018-04-18T03:55:01.933Z,0.00
2018-04-18T03:56:01.944Z,0.00
2018-04-18T03:57:01.960Z,0.00
2018-04-18T03:58:01.962Z,0.00
2018-04-18T03:59:01.969Z,0.00
2018-04-18T04:00:02.003Z,0.00
2018-04-18T04:01:01.984Z,0.00
2018-04-18T04:02:01.995Z,0.00
2018-04-18T04:03:02.002Z,0.00
2018-04-18T04:04:02.017Z,0.00
2018-04-18T04:05:02.016Z,0.00
2018-04-18T04:06:02.023Z,0.00
2018-04-18T04:07:02.036Z,0.00
2018-04-18T04:08:02.044Z,0.00
2018-04-18T04:09:02.055Z,0.00
2018-04-18T04:10:02.076Z,0.00
2018-04-18T04:11:02.069Z,0.00
2018-04-18T04:12:02.079Z,0.00
2018-04-18T04:13:02.087Z,0.00
2018-04-18T04:14:02.097Z,0.00
2018-04-18T04:15:02.105Z,0.00
2018-04-18T04:16:02.121Z,0.00
2018-04-18T04:17:02.129Z,0.00
2018-04-18T04:18:02.132Z,0.00
2018-04-18T04:19:02.142Z,0.00
2018-04-18T04:20:02.145Z,0.00
2018-04-18T04:21:02.155Z,0.00
2018-04-18T04:22:02.173Z,0.00
2018-04-18T04:23:02.176Z,5.63
2018-04-18T04:24:02.182Z,5.63
2018-04-18T04:25:02.187Z,5.63
2018-04-18T04:26:02.201Z,5.63
2018-04-18T04:27:02.206Z,5.63
2018-04-18T04:28:02.226Z,5.63
2018-04-18T04:29:02.226Z,5.63
2018-04-18T04:30:02.232Z,5.63
2018-04-18T04:31:02.271Z,11.25
2018-04-18T04:32:02.250Z,11.25
2018-04-18T04:33:02.265Z,11.25
2018-04-18T04:34:02.267Z,11.25
2018-04-18T04:35:02.290Z,11.25
2018-04-18T04:36:02.286Z,11.25
2018-04-18T04:37:02.302Z,16.88
2018-04-18T04:38:02.307Z,16.88
2018-04-18T04:39:02.310Z,16.88
2018-04-18T04:40:02.317Z,16.88
2018-04-18T04:41:02.327Z,16.88
2018-04-18T04:42:02.364Z,22.50
2018-04-18T04:43:02.347Z,22.50
2018-04-18T04:44:02.352Z,22.50
2018-04-18T04:45:02.391Z,22.50
2018-04-18T04:46:02.370Z,22.50
2018-04-18T04:47:02.376Z,28.13
2018-04-18T04:48:02.385Z,28.13
2018-04-18T04:49:02.391Z,28.13
2018-04-18T04:50:02.402Z,28.13
2018-04-18T04:51:02.419Z,28.13
2018-04-18T04:52:02.418Z,33.75
2018-04-18T04:53:02.429Z,33.75
2018-04-18T04:54:02.437Z,33.75
2018-04-18T04:55:02.447Z,33.75
2018-04-18T04:56:02.463Z,39.38
2018-04-18T04:57:02.464Z,39.38
2018-04-18T04:58:02.470Z,39.38
2018-04-18T04:59:02.481Z,39.38
2018-04-18T05:00:02.492Z,39.38
2018-04-18T05:01:02.506Z,45.00
2018-04-18T05:02:02.506Z,45.00
2018-04-18T05:03:02.531Z,45.00
2018-04-18T05:04:02.522Z,45.00
2018-04-18T05:05:02.531Z,45.00
2018-04-18T05:06:02.538Z,50.63
2018-04-18T05:07:02.552Z,50.63
2018-04-18T05:08:02.567Z,50.63
2018-04-18T05:09:02.561Z,50.63
2018-04-18T05:10:02.575Z,50.63
2018-04-18T05:11:02.580Z,50.63
2018-04-18T05:12:02.596Z,56.25
2018-04-18T05:13:02.600Z,56.25
2018-04-18T05:14:02.625Z,56.25
2018-04-18T05:15:02.621Z,56.25
2018-04-18T05:16:02.625Z,56.25
2018-04-18T05:17:02.633Z,61.88
2018-04-18T05:18:02.639Z,61.88
2018-04-18T05:19:02.660Z,61.88
2018-04-18T05:20:02.677Z,61.88
2018-04-18T05:21:02.664Z,61.88
2018-04-18T05:22:02.678Z,67.50
2018-04-18T05:23:02.685Z,67.50
2018-04-18T05:24:02.694Z,67.50
2018-04-18T05:25:02.712Z,67.50
2018-04-18T05:26:02.711Z,67.50
2018-04-18T05:27:02.720Z,67.50
2018-04-18T05:28:02.726Z,67.50
2018-04-18T05:29:02.741Z,73.13
2018-04-18T05:30:02.743Z,73.13
2018-04-18T05:31:02.755Z,73.13
2018-04-18T05:32:02.815Z,73.13
2018-04-18T05:33:02.769Z,73.13
2018-04-18T05:34:02.778Z,73.13
2018-04-18T05:35:02.782Z,78.75
2018-04-18T05:36:02.799Z,78.75
2018-04-18T05:37:02.805Z,78.75
2018-04-18T05:38:02.836Z,78.75
2018-04-18T05:39:02.823Z,78.75
2018-04-18T05:40:02.836Z,78.75
2018-04-18T05:41:02.845Z,78.75
2018-04-18T05:42:02.845Z,78.75
2018-04-18T05:43:02.857Z,84.38
2018-04-18T05:44:02.866Z,84.38
2018-04-18T05:45:02.877Z,84.38
2018-04-18T05:46:02.888Z,84.38
2018-04-18T05:47:02.896Z,84.38
2018-04-18T05:48:02.906Z,84.38
2018-04-18T05:49:02.909Z,84.38
2018-04-18T05:50:02.919Z,90.00
2018-04-18T05:51:02.936Z,90.00
2018-04-18T05:52:02.941Z,90.00
2018-04-18T05:53:02.945Z,90.00
2018-04-18T05:54:02.963Z,90.00
2018-04-18T05:55:02.960Z,90.00
2018-04-18T05:56:02.969Z,90.00
2018-04-18T05:57:02.985Z,90.00
2018-04-18T05:58:02.990Z,90.00
2018-04-18T05:59:02.991Z,95.63
2018-04-18T06:00:02.999Z,95.63
2018-04-18T06:01:03.014Z,95.63
2018-04-18T06:02:03.015Z,95.63
2018-04-18T06:03:03.029Z,95.63
2018-04-18T06:04:03.039Z,95.63
2018-04-18T06:05:03.050Z,95.63
2018-04-18T06:06:03.056Z,95.63
2018-04-18T06:07:03.066Z,95.63
2018-04-18T06:08:03.071Z,95.63
2018-04-18T06:09:03.078Z,95.63
2018-04-18T06:10:03.090Z,95.63
2018-04-18T06:11:03.098Z,95.63
2018-04-18T06:12:03.105Z,95.63
2018-04-18T06:13:03.122Z,95.63
2018-04-18T06:14:03.131Z,95.63
2018-04-18T06:15:03.135Z,95.63
2018-04-18T06:16:03.141Z,95.63
2018-04-18T06:17:03.154Z,95.63
2018-04-18T06:18:03.159Z,95.63
2018-04-18T06:19:03.186Z,101.25
2018-04-18T06:20:03.177Z,101.25
2018-04-18T06:21:03.190Z,101.25
2018-04-18T06:22:03.195Z,101.25
2018-04-18T06:23:03.203Z,101.25
2018-04-18T06:24:03.218Z,101.25
2018-04-18T06:25:03.226Z,101.25
2018-04-18T06:26:03.237Z,101.25
2018-04-18T06:27:03.240Z,101.25
2018-04-18T06:28:03.252Z,101.25
2018-04-18T06:29:03.262Z,106.88
2018-04-18T06:30:03.270Z,106.88
2018-04-18T06:31:03.292Z,106.88
2018-04-18T06:32:03.288Z,106.88
2018-04-18T06:33:03.304Z,112.50
2018-04-18T06:34:03.310Z,106.88
2018-04-18T06:35:03.314Z,112.50
2018-04-18T06:36:03.322Z,106.88
2018-04-18T06:37:03.330Z,106.88
2018-04-18T06:38:03.341Z,106.88
2018-04-18T06:39:03.361Z,106.88
2018-04-18T06:40:03.426Z,106.88
2018-04-18T06:41:03.371Z,112.50
2018-04-18T06:42:03.379Z,112.50
2018-04-18T06:43:03.388Z,112.50
2018-04-18T06:44:03.398Z,112.50
2018-04-18T06:45:03.409Z,112.50
2018-04-18T06:46:03.418Z,112.50
2018-04-18T06:47:03.426Z,112.50
2018-04-18T06:48:03.440Z,112.50
2018-04-18T06:49:03.446Z,112.50
2018-04-18T06:50:03.455Z,112.50
2018-04-18T06:51:03.470Z,112.50
2018-04-18T06:52:03.478Z,112.50
2018-04-18T06:53:03.485Z,112.50
2018-04-18T06:54:03.492Z,112.50
2018-04-18T06:55:03.504Z,118.13
2018-04-18T06:56:03.519Z,118.13
2018-04-18T06:57:03.533Z,118.13
2018-04-18T06:58:03.529Z,118.13
2018-04-18T06:59:03.537Z,118.13
2018-04-18T07:00:03.553Z,118.13
2018-04-18T07:01:03.557Z,118.13
2018-04-18T07:02:03.570Z,118.13
2018-04-18T07:03:03.575Z,118.13
2018-04-18T07:04:03.597Z,118.13
2018-04-18T07:05:03.596Z,123.75
2018-04-18T07:06:03.620Z,118.13
2018-04-18T07:07:03.619Z,118.13
2018-04-18T07:08:03.626Z,118.13
2018-04-18T07:09:03.635Z,118.13
2018-04-18T07:10:03.654Z,118.13
2018-04-18T07:11:03.657Z,118.13
2018-04-18T07:12:03.666Z,123.75
2018-04-18T07:13:03.674Z,123.75
2018-04-18T07:14:03.680Z,123.75
2018-04-18T07:15:03.695Z,123.75
2018-04-18T07:16:03.721Z,123.75
2018-04-18T07:17:03.784Z,123.75
2018-04-18T07:18:03.731Z,123.75
2018-04-18T07:19:03.735Z,123.75
2018-04-18T07:20:03.746Z,123.75
2018-04-18T07:21:03.755Z,123.75
2018-04-18T07:22:03.775Z,123.75
2018-04-18T07:23:03.774Z,129.38
2018-04-18T07:24:03.789Z,129.38
2018-04-18T07:25:03.791Z,129.38
2018-04-18T07:26:03.802Z,129.38
2018-04-18T07:27:03.811Z,129.38
2018-04-18T07:28:03.832Z,129.38
2018-04-18T07:29:03.834Z,129.38
2018-04-18T07:30:03.846Z,129.38
2018-04-18T07:31:03.853Z,129.38
2018-04-18T07:32:03.871Z,129.38
2018-04-18T07:33:03.875Z,129.38
2018-04-18T07:34:03.891Z,129.38
2018-04-18T07:35:03.895Z,129.38
2018-04-18T07:36:03.903Z,135.00
2018-04-18T07:37:03.913Z,135.00
2018-04-18T07:38:03.923Z,135.00
2018-04-18T07:39:03.937Z,135.00
2018-04-18T07:40:03.988Z,135.00
2018-04-18T07:41:03.954Z,135.00
2018-04-18T07:42:03.963Z,135.00
2018-04-18T07:43:04.008Z,135.00
2018-04-18T07:44:03.990Z,135.00
2018-04-18T07:45:03.992Z,135.00
2018-04-18T07:46:04.012Z,135.00
2018-04-18T07:47:04.018Z,135.00
2018-04-18T07:48:04.031Z,135.00
2018-04-18T07:49:04.034Z,135.00
2018-04-18T07:50:04.048Z,135.00
2018-04-18T07:51:04.057Z,140.63
2018-04-18T07:52:04.067Z,140.63
2018-04-18T07:53:04.077Z,140.63
2018-04-18T07:54:04.106Z,140.63
2018-04-18T07:55:04.107Z,140.63
2018-04-18T07:56:04.111Z,140.63
2018-04-18T07:57:04.118Z,140.63
2018-04-18T07:58:04.130Z,140.63
2018-04-18T07:59:04.143Z,140.63
2018-04-18T08:00:04.164Z,140.63
2018-04-18T08:01:04.161Z,140.63
2018-04-18T08:02:04.172Z,140.63
2018-04-18T08:03:04.187Z,146.25
2018-04-18T08:04:04.195Z,146.25
2018-04-18T08:05:04.205Z,146.25
2018-04-18T08:06:04.213Z,146.25
2018-04-18T08:07:04.249Z,146.25
2018-04-18T08:08:04.234Z,146.25
2018-04-18T08:09:04.249Z,146.25
2018-04-18T08:10:04.255Z,146.25
2018-04-18T08:11:04.269Z,146.25
2018-04-18T08:12:04.279Z,146.25
2018-04-18T08:13:04.287Z,146.25
2018-04-18T08:14:04.296Z,146.25
2018-04-18T08:15:04.316Z,151.88
2018-04-18T08:16:04.318Z,151.88
2018-04-18T08:17:04.328Z,151.88
2018-04-18T08:18:04.343Z,151.88
2018-04-18T08:19:04.354Z,151.88
2018-04-18T08:20:04.364Z,151.88
2018-04-18T08:21:04.387Z,151.88
2018-04-18T08:22:04.384Z,151.88
2018-04-18T08:23:04.398Z,151.88
2018-04-18T08:24:04.408Z,151.88
2018-04-18T08:25:04.417Z,151.88
2018-04-18T08:26:04.433Z,151.88
2018-04-18T08:27:04.442Z,157.50
2018-04-18T08:28:04.452Z,151.88
2018-04-18T08:29:04.462Z,157.50
2018-04-18T08:30:04.474Z,157.50
2018-04-18T08:31:04.484Z,157.50
2018-04-18T08:32:04.496Z,157.50
2018-04-18T08:33:04.517Z,157.50
2018-04-18T08:34:04.566Z,157.50
2018-04-18T08:35:04.527Z,157.50
2018-04-18T08:36:04.543Z,157.50
2018-04-18T08:37:04.554Z,157.50
2018-04-18T08:38:04.560Z,157.50
2018-04-18T08:39:04.571Z,157.50
2018-04-18T08:40:04.591Z,157.50
2018-04-18T08:41:04.593Z,157.50
2018-04-18T08:42:04.607Z,157.50
2018-04-18T08:43:04.620Z,123.75
2018-04-18T08:44:04.628Z,157.50
2018-04-18T08:45:04.639Z,157.50
2018-04-18T08:46:04.652Z,157.50
2018-04-18T08:47:04.666Z,157.50
2018-04-18T08:48:04.675Z,163.13
2018-04-18T08:49:04.690Z,163.13
2018-04-18T08:50:04.697Z,163.13
2018-04-18T08:51:04.710Z,163.13
2018-04-18T08:52:04.722Z,163.13
2018-04-18T08:53:04.742Z,163.13
2018-04-18T08:54:04.747Z,163.13
2018-04-18T08:55:04.756Z,163.13
2018-04-18T08:56:04.766Z,163.13
2018-04-18T08:57:04.776Z,168.75
2018-04-18T08:58:04.790Z,168.75
2018-04-18T08:59:04.812Z,174.38
2018-04-18T09:00:04.812Z,174.38
2018-04-18T09:01:04.824Z,168.75
2018-04-18T09:02:04.849Z,174.38
2018-04-18T09:03:04.849Z,168.75
2018-04-18T09:04:04.857Z,174.38
2018-04-18T09:05:04.877Z,174.38
2018-04-18T09:06:04.886Z,174.38
2018-04-18T09:07:04.898Z,174.38
2018-04-18T09:08:04.908Z,174.38
2018-04-18T09:09:04.917Z,174.38
2018-04-18T09:10:04.937Z,174.38
2018-04-18T09:11:04.947Z,174.38
2018-04-18T09:12:04.955Z,174.38
2018-04-18T09:13:04.969Z,180.00
2018-04-18T09:14:04.976Z,180.00
2018-04-18T09:15:04.990Z,180.00
2018-04-18T09:16:05.003Z,180.00
2018-04-18T09:17:05.021Z,185.63
2018-04-18T09:18:05.025Z,185.63
2018-04-18T09:19:05.039Z,185.63
2018-04-18T09:20:05.049Z,185.63
2018-04-18T09:21:05.060Z,185.63
2018-04-18T09:22:05.077Z,185.63
2018-04-18T09:23:05.093Z,185.63
2018-04-18T09:24:05.099Z,185.63
2018-04-18T09:25:05.113Z,191.25
2018-04-18T09:26:05.123Z,191.25
2018-04-18T09:27:05.135Z,191.25
2018-04-18T09:28:05.147Z,191.25
2018-04-18T09:29:05.164Z,191.25
2018-04-18T09:30:05.171Z,191.25
2018-04-18T09:31:05.185Z,196.88
2018-04-18T09:32:05.194Z,196.88
2018-04-18T09:33:05.210Z,196.88
2018-04-18T09:34:05.222Z,196.88
2018-04-18T09:35:05.238Z,202.50
2018-04-18T09:36:05.245Z,202.50
2018-04-18T09:37:05.259Z,202.50
2018-04-18T09:38:05.278Z,202.50
2018-04-18T09:39:05.286Z,202.50
2018-04-18T09:40:05.301Z,208.13
2018-04-18T09:41:05.307Z,202.50
2018-04-18T09:42:05.319Z,202.50
2018-04-18T09:43:05.333Z,202.50
2018-04-18T09:44:05.351Z,202.50
2018-04-18T09:45:05.361Z,202.50
2018-04-18T09:46:05.371Z,202.50
2018-04-18T09:47:05.397Z,202.50
2018-04-18T09:48:05.397Z,202.50
2018-04-18T09:49:05.408Z,202.50
2018-04-18T09:50:05.436Z,202.50
2018-04-18T09:51:05.441Z,202.50
2018-04-18T09:52:05.448Z,202.50
2018-04-18T09:53:05.461Z,202.50
2018-04-18T09:54:05.473Z,202.50
2018-04-18T09:55:05.488Z,208.13
2018-04-18T09:56:05.499Z,208.13
2018-04-18T09:57:05.524Z,208.13
2018-04-18T09:58:05.525Z,208.13
2018-04-18T09:59:05.536Z,213.75
2018-04-18T10:00:05.561Z,213.75
2018-04-18T10:01:05.566Z,213.75
2018-04-18T10:02:05.577Z,213.75
2018-04-18T10:03:05.615Z,213.75
2018-04-18T10:04:05.606Z,213.75
2018-04-18T10:05:05.617Z,219.38
2018-04-18T10:06:05.626Z,219.38
2018-04-18T10:07:05.638Z,219.38
2018-04-18T10:08:05.653Z,219.38
2018-04-18T10:09:05.665Z,219.38
2018-04-18T10:10:05.678Z,225.00
2018-04-18T10:11:05.692Z,225.00
2018-04-18T10:12:05.715Z,225.00
2018-04-18T10:13:05.719Z,225.00
2018-04-18T10:14:05.739Z,225.00
2018-04-18T10:15:05.748Z,230.63
2018-04-18T10:16:05.765Z,230.63
2018-04-18T10:17:05.771Z,230.63
2018-04-18T10:18:05.790Z,236.25
2018-04-18T10:19:05.794Z,236.25
2018-04-18T10:20:05.825Z,236.25
2018-04-18T10:21:05.823Z,236.25
2018-04-18T10:22:05.845Z,241.88
2018-04-18T10:23:05.853Z,241.88
2018-04-18T10:24:05.868Z,241.88
2018-04-18T10:25:05.880Z,241.88
2018-04-18T10:26:05.890Z,247.50
2018-04-18T10:27:05.903Z,241.88
2018-04-18T10:28:05.935Z,247.50
2018-04-18T10:29:05.930Z,247.50
2018-04-18T10:30:05.946Z,253.13
2018-04-18T10:31:05.960Z,253.13
2018-04-18T10:32:05.969Z,258.75
2018-04-18T10:33:05.985Z,253.13
2018-04-18T10:34:05.999Z,253.13
2018-04-18T10:35:06.016Z,253.13
2018-04-18T10:36:06.028Z,258.75
2018-04-18T10:37:06.039Z,258.75
2018-04-18T10:38:06.091Z,258.75
2018-04-18T10:39:06.065Z,264.38
2018-04-18T10:40:06.076Z,264.38
2018-04-18T10:41:06.091Z,270.00
2018-04-18T10:42:06.113Z,270.00
2018-04-18T10:43:06.117Z,275.63
2018-04-18T10:44:06.140Z,275.63
2018-04-18T10:45:06.150Z,275.63
2018-04-18T10:46:06.160Z,275.63
2018-04-18T10:47:06.178Z,286.88
2018-04-18T10:48:06.186Z,292.50
2018-04-18T10:49:06.215Z,286.88
2018-04-18T10:50:06.258Z,292.50
2018-04-18T10:51:06.226Z,292.50
2018-04-18T10:52:06.242Z,298.13
2018-04-18T10:53:06.256Z,298.13
2018-04-18T10:54:06.273Z,298.13
2018-04-18T10:55:06.293Z,303.75
2018-04-18T10:56:06.297Z,303.75
2018-04-18T10:57:06.315Z,309.38
2018-04-18T10:58:06.327Z,331.88
2018-04-18T10:59:06.341Z,1175.63
2018-04-18T11:00:06.360Z,2919.38
2018-04-18T11:01:07.272Z,3853.13
2018-04-18T11:02:06.388Z,3903.75
2018-04-18T11:03:06.401Z,3903.75
2018-04-18T11:04:06.423Z,3886.88
2018-04-18T11:05:06.438Z,3954.38
2018-04-18T11:06:06.445Z,4005.00
2018-04-18T11:07:06.462Z,3892.50
2018-04-18T11:08:06.549Z,4016.25
2018-04-18T11:09:06.503Z,4055.63
2018-04-18T11:10:06.515Z,4044.38
2018-04-18T11:11:06.532Z,4224.38
2018-04-18T11:12:06.555Z,4359.38
2018-04-18T11:13:06.573Z,4168.13
2018-04-18T11:14:06.589Z,4185.00
2018-04-18T11:15:06.608Z,4151.25
2018-04-18T11:16:06.629Z,4353.75
2018-04-18T11:17:06.647Z,4336.88
2018-04-18T11:18:06.667Z,4235.63
2018-04-18T11:19:06.731Z,4258.13
2018-04-18T11:20:06.707Z,4258.13
2018-04-18T11:21:06.732Z,4089.38
2018-04-18T11:22:06.752Z,3926.25
2018-04-18T11:23:06.783Z,4055.63
2018-04-18T11:24:06.808Z,4123.13
2018-04-18T11:25:06.822Z,4021.88
2018-04-18T11:26:06.843Z,3920.63
2018-04-18T11:27:06.875Z,3909.38
2018-04-18T11:28:06.890Z,3931.88
2018-04-18T11:29:06.911Z,4072.50
2018-04-18T11:30:06.946Z,3960.00
2018-04-18T11:31:06.962Z,3881.25
2018-04-18T11:32:06.992Z,4066.88
2018-04-18T11:33:07.014Z,4286.25
2018-04-18T11:34:07.033Z,4235.63
2018-04-18T11:35:07.074Z,4061.25
2018-04-18T11:36:07.083Z,4128.75
2018-04-18T11:37:07.118Z,4618.13
2018-04-18T11:38:07.133Z,4061.25
2018-04-18T11:39:07.160Z,2975.63
2018-04-18T11:40:07.186Z,2143.13
2018-04-18T11:41:07.206Z,2041.88
2018-04-18T11:42:07.234Z,2036.25
2018-04-18T11:43:07.261Z,2047.50
2018-04-18T11:44:07.280Z,2030.63
2018-04-18T11:45:07.319Z,2053.13
2018-04-18T11:46:07.333Z,2064.38
2018-04-18T11:47:07.359Z,2081.25
2018-04-18T11:48:07.384Z,2120.63
2018-04-18T11:49:07.415Z,2120.63
2018-04-18T11:50:07.432Z,2171.25
2018-04-18T11:51:07.481Z,2182.50
2018-04-18T11:52:07.489Z,2244.38
2018-04-18T11:53:07.514Z,2278.13
2018-04-18T11:54:07.535Z,2295.00
2018-04-18T11:55:07.564Z,2306.25
2018-04-18T11:56:07.590Z,2334.38
2018-04-18T11:57:07.617Z,2368.13
2018-04-18T11:58:07.649Z,2424.38
2018-04-18T11:59:07.668Z,2441.25
2018-04-18T12:00:07.699Z,2458.13
2018-04-18T12:01:07.728Z,2480.63
2018-04-18T12:02:07.756Z,2514.38
2018-04-18T12:03:07.782Z,2531.25
2018-04-18T12:04:07.837Z,2559.38
2018-04-18T12:05:07.832Z,2598.75
2018-04-18T12:06:07.856Z,2587.50
2018-04-18T12:07:07.883Z,2621.25
2018-04-18T12:08:07.910Z,2621.25
2018-04-18T12:09:07.937Z,2649.38
2018-04-18T12:10:07.975Z,2683.13
2018-04-18T12:11:07.992Z,2671.88
2018-04-18T12:12:08.020Z,2705.63
2018-04-18T12:13:08.052Z,2728.13
2018-04-18T12:14:08.726Z,2739.38
2018-04-18T12:15:08.100Z,2750.63
2018-04-18T12:16:08.129Z,2773.13
2018-04-18T12:17:08.162Z,2778.75
2018-04-18T12:18:08.182Z,2801.25
2018-04-18T12:19:08.212Z,2806.88
2018-04-18T12:20:08.238Z,2846.25
2018-04-18T12:21:08.266Z,2835.00
2018-04-18T12:22:08.294Z,2840.63
2018-04-18T12:23:08.325Z,2840.63
2018-04-18T12:24:08.346Z,2846.25
2018-04-18T12:25:08.375Z,2874.38
2018-04-18T12:26:08.402Z,2885.63
2018-04-18T12:27:08.431Z,2874.38
2018-04-18T12:28:08.461Z,2874.38
2018-04-18T12:29:08.488Z,2868.75
2018-04-18T12:30:08.513Z,2925.00
2018-04-18T12:31:08.550Z,2846.25
2018-04-18T12:32:08.570Z,2812.50
2018-04-18T12:33:08.597Z,2846.25
2018-04-18T12:34:08.624Z,2846.25
2018-04-18T12:35:08.658Z,2823.75
2018-04-18T12:36:08.687Z,2840.63
2018-04-18T12:37:08.722Z,2857.50
2018-04-18T12:38:08.735Z,2823.75
2018-04-18T12:39:08.777Z,2790.00
2018-04-18T12:40:08.805Z,2846.25
2018-04-18T12:41:08.820Z,2835.00
2018-04-18T12:42:08.857Z,2790.00
2018-04-18T12:43:08.878Z,2801.25
2018-04-18T12:44:08.909Z,2790.00
2018-04-18T12:45:08.936Z,2823.75
2018-04-18T12:46:08.971Z,2857.50